sensor_id;sensor_type;location;lat;lon;timestamp;P1;durP1;ratioP1;P2;durP2;ratioP2
15342;SDS011;7771;48.478;8.936;2023-03-14T00:00:14;1.30;;;0.80;;
15342;SDS011;7771;48.478;8.936;2023-03-14T00:02:42;1.00;;;0.90;;
15342;SDS011;7771;48.478;8.936;2023-03-14T00:05:09;0.80;;;0.50;;
15342;SDS011;7771;48.478;8.936;2023-03-14T00:07:36;0.50;;;0.50;;
15342;SDS011;7771;48.478;8.936;2023-03-14T00:10:05;1.07;;;0.63;;
15342;SDS011;7771;48.478;8.936;2023-03-14T00:12:31;0.40;;;0.40;;
15342;SDS011;7771;48.478;8.936;2023-03-14T00:14:59;0.40;;;0.40;;
15342;SDS011;7771;48.478;8.936;2023-03-14T00:17:27;0.47;;;0.43;;
15342;SDS011;7771;48.478;8.936;2023-03-14T00:19:54;0.27;;;0.27;;
15342;SDS011;7771;48.478;8.936;2023-03-14T00:22:22;0.47;;;0.47;;
15342;SDS011;7771;48.478;8.936;2023-03-14T00:24:50;0.80;;;0.47;;
15342;SDS011;7771;48.478;8.936;2023-03-14T00:27:17;1.20;;;0.37;;
15342;SDS011;7771;48.478;8.936;2023-03-14T00:29:45;0.40;;;0.37;;
15342;SDS011;7771;48.478;8.936;2023-03-14T00:32:12;0.30;;;0.30;;
15342;SDS011;7771;48.478;8.936;2023-03-14T00:34:40;0.40;;;0.40;;
15342;SDS011;7771;48.478;8.936;2023-03-14T00:37:06;0.40;;;0.40;;
15342;SDS011;7771;48.478;8.936;2023-03-14T00:39:33;0.50;;;0.50;;
15342;SDS011;7771;48.478;8.936;2023-03-14T00:41:59;0.97;;;0.50;;
15342;SDS011;7771;48.478;8.936;2023-03-14T00:44:27;0.50;;;0.40;;
15342;SDS011;7771;48.478;8.936;2023-03-14T00:46:53;0.50;;;0.50;;
15342;SDS011;7771;48.478;8.936;2023-03-14T00:49:20;1.20;;;0.40;;
15342;SDS011;7771;48.478;8.936;2023-03-14T00:51:47;0.73;;;0.47;;
15342;SDS011;7771;48.478;8.936;2023-03-14T00:54:14;1.07;;;0.70;;
15342;SDS011;7771;48.478;8.936;2023-03-14T00:56:40;1.53;;;0.70;;
15342;SDS011;7771;48.478;8.936;2023-03-14T00:59:07;1.17;;;0.90;;
15342;SDS011;7771;48.478;8.936;2023-03-14T01:01:34;0.83;;;0.50;;
15342;SDS011;7771;48.478;8.936;2023-03-14T01:04:01;0.30;;;0.30;;
15342;SDS011;7771;48.478;8.936;2023-03-14T01:06:29;1.73;;;0.40;;
15342;SDS011;7771;48.478;8.936;2023-03-14T01:08:56;0.60;;;0.50;;
15342;SDS011;7771;48.478;8.936;2023-03-14T01:11:24;0.40;;;0.40;;
15342;SDS011;7771;48.478;8.936;2023-03-14T01:13:50;0.40;;;0.30;;
15342;SDS011;7771;48.478;8.936;2023-03-14T01:16:17;0.50;;;0.50;;
15342;SDS011;7771;48.478;8.936;2023-03-14T01:18:44;0.77;;;0.40;;
15342;SDS011;7771;48.478;8.936;2023-03-14T01:21:12;0.20;;;0.20;;
15342;SDS011;7771;48.478;8.936;2023-03-14T01:23:40;0.40;;;0.37;;
15342;SDS011;7771;48.478;8.936;2023-03-14T01:26:09;0.53;;;0.40;;
15342;SDS011;7771;48.478;8.936;2023-03-14T01:28:35;0.93;;;0.33;;
15342;SDS011;7771;48.478;8.936;2023-03-14T01:31:04;0.63;;;0.40;;
15342;SDS011;7771;48.478;8.936;2023-03-14T01:33:30;0.30;;;0.30;;
15342;SDS011;7771;48.478;8.936;2023-03-14T01:35:57;0.70;;;0.30;;
15342;SDS011;7771;48.478;8.936;2023-03-14T01:38:24;0.30;;;0.30;;
15342;SDS011;7771;48.478;8.936;2023-03-14T01:40:51;0.90;;;0.30;;
15342;SDS011;7771;48.478;8.936;2023-03-14T01:43:19;0.30;;;0.30;;
15342;SDS011;7771;48.478;8.936;2023-03-14T01:48:25;0.97;;;0.20;;
15342;SDS011;7771;48.478;8.936;2023-03-14T01:50:52;0.20;;;0.20;;
15342;SDS011;7771;48.478;8.936;2023-03-14T01:53:19;0.40;;;0.37;;
15342;SDS011;7771;48.478;8.936;2023-03-14T01:55:46;0.67;;;0.43;;
15342;SDS011;7771;48.478;8.936;2023-03-14T01:58:13;0.20;;;0.20;;
15342;SDS011;7771;48.478;8.936;2023-03-14T02:00:40;0.50;;;0.40;;
15342;SDS011;7771;48.478;8.936;2023-03-14T02:03:09;0.57;;;0.43;;
15342;SDS011;7771;48.478;8.936;2023-03-14T02:05:34;0.47;;;0.30;;
15342;SDS011;7771;48.478;8.936;2023-03-14T02:08:00;0.40;;;0.40;;
15342;SDS011;7771;48.478;8.936;2023-03-14T02:10:28;1.27;;;0.40;;
15342;SDS011;7771;48.478;8.936;2023-03-14T02:12:54;0.47;;;0.30;;
15342;SDS011;7771;48.478;8.936;2023-03-14T02:15:20;0.30;;;0.30;;
15342;SDS011;7771;48.478;8.936;2023-03-14T02:17:47;0.30;;;0.30;;
15342;SDS011;7771;48.478;8.936;2023-03-14T02:20:34;0.43;;;0.30;;
15342;SDS011;7771;48.478;8.936;2023-03-14T02:23:03;0.30;;;0.30;;
15342;SDS011;7771;48.478;8.936;2023-03-14T02:25:35;0.40;;;0.40;;
15342;SDS011;7771;48.478;8.936;2023-03-14T02:28:03;0.43;;;0.43;;
15342;SDS011;7771;48.478;8.936;2023-03-14T02:30:32;0.50;;;0.40;;
15342;SDS011;7771;48.478;8.936;2023-03-14T02:33:01;1.70;;;0.43;;
15342;SDS011;7771;48.478;8.936;2023-03-14T02:35:29;0.30;;;0.30;;
15342;SDS011;7771;48.478;8.936;2023-03-14T02:37:55;0.30;;;0.30;;
15342;SDS011;7771;48.478;8.936;2023-03-14T02:40:33;0.43;;;0.37;;
15342;SDS011;7771;48.478;8.936;2023-03-14T02:42:59;0.73;;;0.50;;
15342;SDS011;7771;48.478;8.936;2023-03-14T02:45:34;0.50;;;0.50;;
15342;SDS011;7771;48.478;8.936;2023-03-14T02:47:57;0.53;;;0.50;;
15342;SDS011;7771;48.478;8.936;2023-03-14T02:50:22;0.47;;;0.40;;
15342;SDS011;7771;48.478;8.936;2023-03-14T02:52:49;1.03;;;0.40;;
15342;SDS011;7771;48.478;8.936;2023-03-14T02:55:20;0.40;;;0.40;;
15342;SDS011;7771;48.478;8.936;2023-03-14T02:57:46;2.00;;;0.50;;
15342;SDS011;7771;48.478;8.936;2023-03-14T03:00:14;0.87;;;0.53;;
15342;SDS011;7771;48.478;8.936;2023-03-14T03:02:41;1.37;;;0.60;;
15342;SDS011;7771;48.478;8.936;2023-03-14T03:05:08;1.27;;;1.17;;
15342;SDS011;7771;48.478;8.936;2023-03-14T03:07:34;2.53;;;0.60;;
15342;SDS011;7771;48.478;8.936;2023-03-14T03:10:01;9.40;;;3.13;;
15342;SDS011;7771;48.478;8.936;2023-03-14T03:12:28;6.37;;;2.40;;
15342;SDS011;7771;48.478;8.936;2023-03-14T03:14:55;2.37;;;0.77;;
15342;SDS011;7771;48.478;8.936;2023-03-14T03:17:21;1.50;;;0.77;;
15342;SDS011;7771;48.478;8.936;2023-03-14T03:19:49;0.50;;;0.40;;
15342;SDS011;7771;48.478;8.936;2023-03-14T03:22:16;0.83;;;0.60;;
15342;SDS011;7771;48.478;8.936;2023-03-14T03:24:43;0.50;;;0.50;;
15342;SDS011;7771;48.478;8.936;2023-03-14T03:27:09;2.63;;;0.67;;
15342;SDS011;7771;48.478;8.936;2023-03-14T03:29:36;0.77;;;0.40;;
15342;SDS011;7771;48.478;8.936;2023-03-14T03:32:03;0.60;;;0.57;;
15342;SDS011;7771;48.478;8.936;2023-03-14T03:34:30;1.37;;;0.60;;
15342;SDS011;7771;48.478;8.936;2023-03-14T03:36:57;1.23;;;0.50;;
15342;SDS011;7771;48.478;8.936;2023-03-14T03:39:24;1.77;;;0.60;;
15342;SDS011;7771;48.478;8.936;2023-03-14T03:41:51;1.07;;;0.60;;
15342;SDS011;7771;48.478;8.936;2023-03-14T03:44:18;0.50;;;0.50;;
15342;SDS011;7771;48.478;8.936;2023-03-14T03:46:45;2.53;;;0.83;;
15342;SDS011;7771;48.478;8.936;2023-03-14T03:49:12;0.93;;;0.80;;
15342;SDS011;7771;48.478;8.936;2023-03-14T03:51:39;2.30;;;0.70;;
15342;SDS011;7771;48.478;8.936;2023-03-14T03:54:06;1.60;;;0.80;;
15342;SDS011;7771;48.478;8.936;2023-03-14T03:56:32;1.10;;;0.80;;
15342;SDS011;7771;48.478;8.936;2023-03-14T03:58:59;0.70;;;0.70;;
15342;SDS011;7771;48.478;8.936;2023-03-14T04:01:26;2.90;;;0.60;;
15342;SDS011;7771;48.478;8.936;2023-03-14T04:03:53;1.17;;;0.70;;
15342;SDS011;7771;48.478;8.936;2023-03-14T04:06:19;2.40;;;0.70;;
15342;SDS011;7771;48.478;8.936;2023-03-14T04:08:46;0.70;;;0.53;;
15342;SDS011;7771;48.478;8.936;2023-03-14T04:11:13;1.20;;;0.80;;
15342;SDS011;7771;48.478;8.936;2023-03-14T04:13:39;2.50;;;0.63;;
15342;SDS011;7771;48.478;8.936;2023-03-14T04:16:12;1.23;;;0.60;;
15342;SDS011;7771;48.478;8.936;2023-03-14T04:18:37;1.80;;;0.70;;
15342;SDS011;7771;48.478;8.936;2023-03-14T04:21:04;1.60;;;0.70;;
15342;SDS011;7771;48.478;8.936;2023-03-14T04:23:31;1.40;;;0.70;;
15342;SDS011;7771;48.478;8.936;2023-03-14T04:25:57;7.27;;;0.90;;
15342;SDS011;7771;48.478;8.936;2023-03-14T04:28:25;1.97;;;0.87;;
15342;SDS011;7771;48.478;8.936;2023-03-14T04:30:52;5.10;;;0.83;;
15342;SDS011;7771;48.478;8.936;2023-03-14T04:33:19;1.03;;;0.70;;
15342;SDS011;7771;48.478;8.936;2023-03-14T04:35:46;1.00;;;0.70;;
15342;SDS011;7771;48.478;8.936;2023-03-14T04:38:13;3.67;;;0.70;;
15342;SDS011;7771;48.478;8.936;2023-03-14T04:40:41;2.33;;;0.90;;
15342;SDS011;7771;48.478;8.936;2023-03-14T04:43:08;2.00;;;1.00;;
15342;SDS011;7771;48.478;8.936;2023-03-14T04:45:34;2.00;;;0.73;;
15342;SDS011;7771;48.478;8.936;2023-03-14T04:48:01;0.73;;;0.73;;
15342;SDS011;7771;48.478;8.936;2023-03-14T04:50:28;2.00;;;1.10;;
15342;SDS011;7771;48.478;8.936;2023-03-14T04:52:55;1.63;;;0.80;;
15342;SDS011;7771;48.478;8.936;2023-03-14T04:55:23;2.07;;;0.80;;
15342;SDS011;7771;48.478;8.936;2023-03-14T04:57:50;1.40;;;0.63;;
15342;SDS011;7771;48.478;8.936;2023-03-14T05:00:17;1.90;;;0.63;;
15342;SDS011;7771;48.478;8.936;2023-03-14T05:02:45;1.23;;;0.63;;
15342;SDS011;7771;48.478;8.936;2023-03-14T05:05:13;3.10;;;0.80;;
15342;SDS011;7771;48.478;8.936;2023-03-14T05:07:40;1.23;;;0.50;;
15342;SDS011;7771;48.478;8.936;2023-03-14T05:10:07;2.33;;;0.90;;
15342;SDS011;7771;48.478;8.936;2023-03-14T05:12:35;0.90;;;0.70;;
15342;SDS011;7771;48.478;8.936;2023-03-14T05:15:01;1.50;;;0.67;;
15342;SDS011;7771;48.478;8.936;2023-03-14T05:17:29;6.27;;;1.10;;
15342;SDS011;7771;48.478;8.936;2023-03-14T05:19:55;4.13;;;1.07;;
15342;SDS011;7771;48.478;8.936;2023-03-14T05:22:23;2.63;;;1.23;;
15342;SDS011;7771;48.478;8.936;2023-03-14T05:24:49;1.53;;;0.70;;
15342;SDS011;7771;48.478;8.936;2023-03-14T05:27:16;2.57;;;0.80;;
15342;SDS011;7771;48.478;8.936;2023-03-14T05:29:44;1.30;;;0.73;;
15342;SDS011;7771;48.478;8.936;2023-03-14T05:32:10;2.53;;;0.70;;
15342;SDS011;7771;48.478;8.936;2023-03-14T05:34:37;5.03;;;0.90;;
15342;SDS011;7771;48.478;8.936;2023-03-14T05:37:04;2.17;;;0.80;;
15342;SDS011;7771;48.478;8.936;2023-03-14T05:39:31;2.80;;;0.90;;
15342;SDS011;7771;48.478;8.936;2023-03-14T05:41:59;2.47;;;0.80;;
15342;SDS011;7771;48.478;8.936;2023-03-14T05:44:26;1.47;;;0.80;;
15342;SDS011;7771;48.478;8.936;2023-03-14T05:46:52;1.73;;;0.60;;
15342;SDS011;7771;48.478;8.936;2023-03-14T05:52:03;4.20;;;0.70;;
15342;SDS011;7771;48.478;8.936;2023-03-14T05:54:30;2.90;;;0.87;;
15342;SDS011;7771;48.478;8.936;2023-03-14T05:56:58;2.10;;;1.10;;
15342;SDS011;7771;48.478;8.936;2023-03-14T05:59:26;2.47;;;0.80;;
15342;SDS011;7771;48.478;8.936;2023-03-14T06:01:53;1.10;;;0.70;;
15342;SDS011;7771;48.478;8.936;2023-03-14T06:04:19;4.73;;;0.80;;
15342;SDS011;7771;48.478;8.936;2023-03-14T06:06:46;1.33;;;0.70;;
15342;SDS011;7771;48.478;8.936;2023-03-14T06:11:59;2.90;;;1.30;;
15342;SDS011;7771;48.478;8.936;2023-03-14T06:14:26;2.43;;;0.97;;
15342;SDS011;7771;48.478;8.936;2023-03-14T06:16:54;3.47;;;0.70;;
15342;SDS011;7771;48.478;8.936;2023-03-14T06:19:21;2.57;;;0.70;;
15342;SDS011;7771;48.478;8.936;2023-03-14T06:21:50;1.13;;;0.50;;
15342;SDS011;7771;48.478;8.936;2023-03-14T06:24:16;4.17;;;1.90;;
15342;SDS011;7771;48.478;8.936;2023-03-14T06:26:43;1.47;;;0.90;;
15342;SDS011;7771;48.478;8.936;2023-03-14T06:29:10;2.93;;;1.43;;
15342;SDS011;7771;48.478;8.936;2023-03-14T06:31:37;2.30;;;1.23;;
15342;SDS011;7771;48.478;8.936;2023-03-14T06:34:05;1.10;;;0.80;;
15342;SDS011;7771;48.478;8.936;2023-03-14T06:36:32;2.93;;;1.70;;
15342;SDS011;7771;48.478;8.936;2023-03-14T06:38:58;2.47;;;1.10;;
15342;SDS011;7771;48.478;8.936;2023-03-14T06:41:26;1.50;;;0.80;;
15342;SDS011;7771;48.478;8.936;2023-03-14T06:43:53;2.40;;;0.70;;
15342;SDS011;7771;48.478;8.936;2023-03-14T06:46:20;1.50;;;0.90;;
15342;SDS011;7771;48.478;8.936;2023-03-14T06:48:47;2.30;;;1.53;;
15342;SDS011;7771;48.478;8.936;2023-03-14T06:51:13;3.63;;;1.00;;
15342;SDS011;7771;48.478;8.936;2023-03-14T06:53:40;2.63;;;0.77;;
15342;SDS011;7771;48.478;8.936;2023-03-14T06:56:07;1.00;;;0.80;;
15342;SDS011;7771;48.478;8.936;2023-03-14T06:58:35;3.27;;;1.00;;
15342;SDS011;7771;48.478;8.936;2023-03-14T07:01:06;1.47;;;0.80;;
15342;SDS011;7771;48.478;8.936;2023-03-14T07:03:33;1.27;;;0.87;;
15342;SDS011;7771;48.478;8.936;2023-03-14T07:06:00;1.60;;;1.00;;
15342;SDS011;7771;48.478;8.936;2023-03-14T07:08:28;1.30;;;1.00;;
15342;SDS011;7771;48.478;8.936;2023-03-14T07:10:56;1.10;;;0.57;;
15342;SDS011;7771;48.478;8.936;2023-03-14T07:13:21;2.40;;;0.83;;
15342;SDS011;7771;48.478;8.936;2023-03-14T07:15:49;2.70;;;1.07;;
15342;SDS011;7771;48.478;8.936;2023-03-14T07:18:16;2.57;;;1.13;;
15342;SDS011;7771;48.478;8.936;2023-03-14T07:20:44;1.40;;;1.03;;
15342;SDS011;7771;48.478;8.936;2023-03-14T07:23:10;1.80;;;0.80;;
15342;SDS011;7771;48.478;8.936;2023-03-14T07:25:37;1.87;;;0.90;;
15342;SDS011;7771;48.478;8.936;2023-03-14T07:28:05;1.87;;;0.97;;
15342;SDS011;7771;48.478;8.936;2023-03-14T07:30:32;1.90;;;1.00;;
15342;SDS011;7771;48.478;8.936;2023-03-14T07:32:59;3.00;;;0.80;;
15342;SDS011;7771;48.478;8.936;2023-03-14T07:35:26;1.33;;;0.63;;
15342;SDS011;7771;48.478;8.936;2023-03-14T07:37:53;0.50;;;0.50;;
15342;SDS011;7771;48.478;8.936;2023-03-14T07:40:20;0.87;;;0.70;;
15342;SDS011;7771;48.478;8.936;2023-03-14T07:42:47;1.30;;;0.47;;
15342;SDS011;7771;48.478;8.936;2023-03-14T07:45:13;1.43;;;0.93;;
15342;SDS011;7771;48.478;8.936;2023-03-14T07:47:41;1.87;;;0.90;;
15342;SDS011;7771;48.478;8.936;2023-03-14T07:50:08;1.40;;;0.70;;
15342;SDS011;7771;48.478;8.936;2023-03-14T07:52:36;1.53;;;0.90;;
15342;SDS011;7771;48.478;8.936;2023-03-14T07:55:03;2.93;;;1.70;;
15342;SDS011;7771;48.478;8.936;2023-03-14T07:57:31;1.80;;;0.93;;
15342;SDS011;7771;48.478;8.936;2023-03-14T07:59:57;1.80;;;0.80;;
15342;SDS011;7771;48.478;8.936;2023-03-14T08:02:25;1.57;;;1.40;;
15342;SDS011;7771;48.478;8.936;2023-03-14T08:04:52;1.57;;;0.80;;
15342;SDS011;7771;48.478;8.936;2023-03-14T08:07:20;1.17;;;0.80;;
15342;SDS011;7771;48.478;8.936;2023-03-14T08:09:47;1.80;;;0.60;;
15342;SDS011;7771;48.478;8.936;2023-03-14T08:12:13;1.40;;;1.00;;
15342;SDS011;7771;48.478;8.936;2023-03-14T08:14:40;1.30;;;0.80;;
15342;SDS011;7771;48.478;8.936;2023-03-14T08:17:07;1.27;;;0.63;;
15342;SDS011;7771;48.478;8.936;2023-03-14T08:19:34;1.63;;;1.20;;
15342;SDS011;7771;48.478;8.936;2023-03-14T08:22:02;5.90;;;3.30;;
15342;SDS011;7771;48.478;8.936;2023-03-14T08:24:29;2.93;;;1.80;;
15342;SDS011;7771;48.478;8.936;2023-03-14T08:26:56;2.97;;;1.37;;
15342;SDS011;7771;48.478;8.936;2023-03-14T08:29:22;0.90;;;0.70;;
15342;SDS011;7771;48.478;8.936;2023-03-14T08:31:49;2.63;;;1.10;;
15342;SDS011;7771;48.478;8.936;2023-03-14T08:34:16;4.43;;;1.00;;
15342;SDS011;7771;48.478;8.936;2023-03-14T08:36:43;1.87;;;0.90;;
15342;SDS011;7771;48.478;8.936;2023-03-14T08:39:09;1.30;;;1.13;;
15342;SDS011;7771;48.478;8.936;2023-03-14T08:41:36;7.90;;;4.57;;
15342;SDS011;7771;48.478;8.936;2023-03-14T08:44:03;4.33;;;1.03;;
15342;SDS011;7771;48.478;8.936;2023-03-14T08:46:30;5.73;;;3.33;;
15342;SDS011;7771;48.478;8.936;2023-03-14T08:48:57;1.30;;;0.80;;
15342;SDS011;7771;48.478;8.936;2023-03-14T08:51:24;1.50;;;0.50;;
15342;SDS011;7771;48.478;8.936;2023-03-14T08:53:51;0.50;;;0.50;;
15342;SDS011;7771;48.478;8.936;2023-03-14T08:56:18;2.70;;;0.67;;
15342;SDS011;7771;48.478;8.936;2023-03-14T08:58:44;0.40;;;0.40;;
15342;SDS011;7771;48.478;8.936;2023-03-14T09:01:11;1.30;;;0.60;;
15342;SDS011;7771;48.478;8.936;2023-03-14T09:03:38;1.83;;;0.80;;
15342;SDS011;7771;48.478;8.936;2023-03-14T09:06:06;1.60;;;0.73;;
15342;SDS011;7771;48.478;8.936;2023-03-14T09:08:34;0.60;;;0.60;;
15342;SDS011;7771;48.478;8.936;2023-03-14T09:11:01;0.60;;;0.50;;
15342;SDS011;7771;48.478;8.936;2023-03-14T09:13:27;2.77;;;2.50;;
15342;SDS011;7771;48.478;8.936;2023-03-14T09:15:54;0.90;;;0.53;;
15342;SDS011;7771;48.478;8.936;2023-03-14T09:18:29;1.40;;;0.83;;
15342;SDS011;7771;48.478;8.936;2023-03-14T09:20:56;0.60;;;0.60;;
15342;SDS011;7771;48.478;8.936;2023-03-14T09:23:23;2.10;;;0.70;;
15342;SDS011;7771;48.478;8.936;2023-03-14T09:25:55;1.10;;;0.60;;
15342;SDS011;7771;48.478;8.936;2023-03-14T09:28:22;1.20;;;0.60;;
15342;SDS011;7771;48.478;8.936;2023-03-14T09:30:48;1.73;;;0.50;;
15342;SDS011;7771;48.478;8.936;2023-03-14T09:33:16;2.03;;;1.60;;
15342;SDS011;7771;48.478;8.936;2023-03-14T09:35:43;18.60;;;14.90;;
15342;SDS011;7771;48.478;8.936;2023-03-14T09:38:10;41.83;;;31.70;;
15342;SDS011;7771;48.478;8.936;2023-03-14T09:40:37;23.67;;;20.27;;
15342;SDS011;7771;48.478;8.936;2023-03-14T09:43:03;5.60;;;5.00;;
15342;SDS011;7771;48.478;8.936;2023-03-14T09:45:34;6.73;;;4.73;;
15342;SDS011;7771;48.478;8.936;2023-03-14T09:47:59;3.03;;;1.93;;
15342;SDS011;7771;48.478;8.936;2023-03-14T09:50:27;3.60;;;1.57;;
15342;SDS011;7771;48.478;8.936;2023-03-14T09:52:55;2.07;;;1.30;;
15342;SDS011;7771;48.478;8.936;2023-03-14T09:55:20;1.70;;;1.30;;
15342;SDS011;7771;48.478;8.936;2023-03-14T10:00:32;3.73;;;0.93;;
15342;SDS011;7771;48.478;8.936;2023-03-14T10:03:09;1.83;;;1.00;;
15342;SDS011;7771;48.478;8.936;2023-03-14T10:05:26;1.27;;;0.50;;
15342;SDS011;7771;48.478;8.936;2023-03-14T10:07:53;0.50;;;0.50;;
15342;SDS011;7771;48.478;8.936;2023-03-14T10:10:20;0.87;;;0.70;;
15342;SDS011;7771;48.478;8.936;2023-03-14T10:12:48;0.60;;;0.60;;
15342;SDS011;7771;48.478;8.936;2023-03-14T10:15:14;0.40;;;0.40;;
15342;SDS011;7771;48.478;8.936;2023-03-14T10:17:41;1.53;;;0.50;;
15342;SDS011;7771;48.478;8.936;2023-03-14T10:20:15;0.77;;;0.30;;
15342;SDS011;7771;48.478;8.936;2023-03-14T10:22:49;0.93;;;0.53;;
15342;SDS011;7771;48.478;8.936;2023-03-14T10:25:24;0.40;;;0.40;;
15342;SDS011;7771;48.478;8.936;2023-03-14T10:27:43;1.10;;;0.53;;
15342;SDS011;7771;48.478;8.936;2023-03-14T10:30:14;1.67;;;0.47;;
15342;SDS011;7771;48.478;8.936;2023-03-14T10:32:38;0.90;;;0.40;;
15342;SDS011;7771;48.478;8.936;2023-03-14T10:37:56;0.87;;;0.33;;
15342;SDS011;7771;48.478;8.936;2023-03-14T10:40:31;2.60;;;0.53;;
15342;SDS011;7771;48.478;8.936;2023-03-14T10:42:58;0.90;;;0.30;;
15342;SDS011;7771;48.478;8.936;2023-03-14T10:45:28;0.50;;;0.50;;
15342;SDS011;7771;48.478;8.936;2023-03-14T10:47:54;0.37;;;0.30;;
15342;SDS011;7771;48.478;8.936;2023-03-14T10:50:23;0.60;;;0.40;;
15342;SDS011;7771;48.478;8.936;2023-03-14T10:52:49;1.47;;;1.00;;
15342;SDS011;7771;48.478;8.936;2023-03-14T10:55:16;0.53;;;0.47;;
15342;SDS011;7771;48.478;8.936;2023-03-14T10:57:43;1.23;;;0.40;;
15342;SDS011;7771;48.478;8.936;2023-03-14T11:00:14;0.53;;;0.50;;
15342;SDS011;7771;48.478;8.936;2023-03-14T11:03:01;0.47;;;0.47;;
15342;SDS011;7771;48.478;8.936;2023-03-14T11:05:37;0.80;;;0.67;;
15342;SDS011;7771;48.478;8.936;2023-03-14T11:08:08;1.47;;;0.70;;
15342;SDS011;7771;48.478;8.936;2023-03-14T11:10:34;0.67;;;0.60;;
15342;SDS011;7771;48.478;8.936;2023-03-14T11:13:08;0.27;;;0.27;;
15342;SDS011;7771;48.478;8.936;2023-03-14T11:18:27;1.33;;;1.00;;
15342;SDS011;7771;48.478;8.936;2023-03-14T11:20:53;1.20;;;0.97;;
15342;SDS011;7771;48.478;8.936;2023-03-14T11:26:01;1.17;;;0.80;;
15342;SDS011;7771;48.478;8.936;2023-03-14T11:28:46;1.53;;;1.10;;
15342;SDS011;7771;48.478;8.936;2023-03-14T11:34:00;1.80;;;0.90;;
15342;SDS011;7771;48.478;8.936;2023-03-14T11:36:31;0.47;;;0.40;;
15342;SDS011;7771;48.478;8.936;2023-03-14T11:39:11;2.23;;;1.57;;
15342;SDS011;7771;48.478;8.936;2023-03-14T11:41:39;1.60;;;1.10;;
15342;SDS011;7771;48.478;8.936;2023-03-14T11:44:10;1.03;;;0.57;;
15342;SDS011;7771;48.478;8.936;2023-03-14T11:46:50;0.90;;;0.60;;
15342;SDS011;7771;48.478;8.936;2023-03-14T11:49:27;1.00;;;0.60;;
15342;SDS011;7771;48.478;8.936;2023-03-14T11:54:38;1.40;;;0.80;;
15342;SDS011;7771;48.478;8.936;2023-03-14T11:57:10;1.10;;;0.60;;
15342;SDS011;7771;48.478;8.936;2023-03-14T12:05:31;1.57;;;0.83;;
15342;SDS011;7771;48.478;8.936;2023-03-14T12:08:10;1.13;;;0.37;;
15342;SDS011;7771;48.478;8.936;2023-03-14T12:10:38;0.73;;;0.50;;
15342;SDS011;7771;48.478;8.936;2023-03-14T12:13:03;2.47;;;1.10;;
15342;SDS011;7771;48.478;8.936;2023-03-14T12:15:31;4.50;;;2.17;;
15342;SDS011;7771;48.478;8.936;2023-03-14T12:17:58;1.87;;;1.73;;
15342;SDS011;7771;48.478;8.936;2023-03-14T12:20:24;1.13;;;0.67;;
15342;SDS011;7771;48.478;8.936;2023-03-14T12:22:53;0.50;;;0.50;;
15342;SDS011;7771;48.478;8.936;2023-03-14T12:25:22;1.50;;;0.60;;
15342;SDS011;7771;48.478;8.936;2023-03-14T12:28:11;0.40;;;0.40;;
15342;SDS011;7771;48.478;8.936;2023-03-14T12:30:34;0.60;;;0.60;;
15342;SDS011;7771;48.478;8.936;2023-03-14T12:35:40;0.67;;;0.40;;
15342;SDS011;7771;48.478;8.936;2023-03-14T12:38:12;1.37;;;0.80;;
15342;SDS011;7771;48.478;8.936;2023-03-14T12:40:39;1.03;;;0.93;;
15342;SDS011;7771;48.478;8.936;2023-03-14T12:43:24;1.00;;;0.60;;
15342;SDS011;7771;48.478;8.936;2023-03-14T12:45:36;1.03;;;0.50;;
15342;SDS011;7771;48.478;8.936;2023-03-14T12:48:08;1.50;;;0.93;;
15342;SDS011;7771;48.478;8.936;2023-03-14T12:51:02;1.57;;;0.97;;
15342;SDS011;7771;48.478;8.936;2023-03-14T12:56:21;0.53;;;0.53;;
15342;SDS011;7771;48.478;8.936;2023-03-14T12:58:54;1.83;;;0.97;;
15342;SDS011;7771;48.478;8.936;2023-03-14T13:01:24;0.90;;;0.37;;
15342;SDS011;7771;48.478;8.936;2023-03-14T13:03:53;1.03;;;0.63;;
15342;SDS011;7771;48.478;8.936;2023-03-14T13:12:09;0.60;;;0.50;;
15342;SDS011;7771;48.478;8.936;2023-03-14T13:14:34;2.07;;;0.70;;
15342;SDS011;7771;48.478;8.936;2023-03-14T13:17:02;2.20;;;0.77;;
15342;SDS011;7771;48.478;8.936;2023-03-14T13:19:29;1.53;;;0.80;;
15342;SDS011;7771;48.478;8.936;2023-03-14T13:21:56;0.97;;;0.70;;
15342;SDS011;7771;48.478;8.936;2023-03-14T13:24:24;1.77;;;0.70;;
15342;SDS011;7771;48.478;8.936;2023-03-14T13:26:52;1.57;;;0.60;;
15342;SDS011;7771;48.478;8.936;2023-03-14T13:29:22;1.77;;;0.90;;
15342;SDS011;7771;48.478;8.936;2023-03-14T13:31:50;3.93;;;0.70;;
15342;SDS011;7771;48.478;8.936;2023-03-14T13:34:17;1.53;;;0.80;;
15342;SDS011;7771;48.478;8.936;2023-03-14T13:36:44;3.17;;;0.80;;
15342;SDS011;7771;48.478;8.936;2023-03-14T13:39:12;2.03;;;0.87;;
15342;SDS011;7771;48.478;8.936;2023-03-14T13:41:38;2.87;;;1.00;;
15342;SDS011;7771;48.478;8.936;2023-03-14T13:44:07;0.67;;;0.60;;
15342;SDS011;7771;48.478;8.936;2023-03-14T13:46:33;1.83;;;0.70;;
15342;SDS011;7771;48.478;8.936;2023-03-14T13:49:03;3.33;;;0.90;;
15342;SDS011;7771;48.478;8.936;2023-03-14T13:51:28;1.10;;;0.73;;
15342;SDS011;7771;48.478;8.936;2023-03-14T13:53:55;4.60;;;1.83;;
15342;SDS011;7771;48.478;8.936;2023-03-14T13:56:23;3.10;;;1.20;;
15342;SDS011;7771;48.478;8.936;2023-03-14T13:58:50;2.90;;;0.80;;
15342;SDS011;7771;48.478;8.936;2023-03-14T14:01:16;1.90;;;0.80;;
15342;SDS011;7771;48.478;8.936;2023-03-14T14:03:46;1.10;;;1.00;;
15342;SDS011;7771;48.478;8.936;2023-03-14T14:06:20;1.20;;;0.80;;
15342;SDS011;7771;48.478;8.936;2023-03-14T14:08:46;3.60;;;0.80;;
15342;SDS011;7771;48.478;8.936;2023-03-14T14:11:18;2.10;;;1.00;;
15342;SDS011;7771;48.478;8.936;2023-03-14T14:13:45;3.13;;;0.90;;
15342;SDS011;7771;48.478;8.936;2023-03-14T14:16:12;0.83;;;0.50;;
15342;SDS011;7771;48.478;8.936;2023-03-14T14:18:39;1.60;;;0.80;;
15342;SDS011;7771;48.478;8.936;2023-03-14T14:21:07;2.07;;;1.00;;
15342;SDS011;7771;48.478;8.936;2023-03-14T14:23:34;3.37;;;1.40;;
15342;SDS011;7771;48.478;8.936;2023-03-14T14:26:02;0.63;;;0.60;;
15342;SDS011;7771;48.478;8.936;2023-03-14T14:28:30;2.70;;;0.80;;
15342;SDS011;7771;48.478;8.936;2023-03-14T14:33:39;2.43;;;0.80;;
15342;SDS011;7771;48.478;8.936;2023-03-14T14:36:04;1.33;;;0.93;;
15342;SDS011;7771;48.478;8.936;2023-03-14T14:38:31;2.63;;;0.90;;
15342;SDS011;7771;48.478;8.936;2023-03-14T14:40:59;1.40;;;0.80;;
15342;SDS011;7771;48.478;8.936;2023-03-14T14:43:26;2.20;;;0.83;;
15342;SDS011;7771;48.478;8.936;2023-03-14T14:45:53;1.70;;;0.80;;
15342;SDS011;7771;48.478;8.936;2023-03-14T14:48:21;1.40;;;0.97;;
15342;SDS011;7771;48.478;8.936;2023-03-14T14:50:49;2.60;;;1.10;;
15342;SDS011;7771;48.478;8.936;2023-03-14T14:55:51;2.60;;;0.83;;
15342;SDS011;7771;48.478;8.936;2023-03-14T14:58:21;0.93;;;0.83;;
15342;SDS011;7771;48.478;8.936;2023-03-14T15:00:50;2.67;;;1.57;;
15342;SDS011;7771;48.478;8.936;2023-03-14T15:03:18;2.50;;;1.10;;
15342;SDS011;7771;48.478;8.936;2023-03-14T15:05:45;2.77;;;1.07;;
15342;SDS011;7771;48.478;8.936;2023-03-14T15:08:12;1.90;;;1.07;;
15342;SDS011;7771;48.478;8.936;2023-03-14T15:10:40;2.63;;;0.90;;
15342;SDS011;7771;48.478;8.936;2023-03-14T15:13:06;2.60;;;0.80;;
15342;SDS011;7771;48.478;8.936;2023-03-14T15:15:35;1.63;;;0.83;;
15342;SDS011;7771;48.478;8.936;2023-03-14T15:18:01;3.23;;;0.97;;
15342;SDS011;7771;48.478;8.936;2023-03-14T15:20:28;2.60;;;1.00;;
15342;SDS011;7771;48.478;8.936;2023-03-14T15:22:56;1.10;;;0.70;;
15342;SDS011;7771;48.478;8.936;2023-03-14T15:25:23;3.10;;;0.80;;
15342;SDS011;7771;48.478;8.936;2023-03-14T15:27:49;1.90;;;0.80;;
15342;SDS011;7771;48.478;8.936;2023-03-14T15:30:18;4.20;;;0.90;;
15342;SDS011;7771;48.478;8.936;2023-03-14T15:32:45;3.40;;;0.97;;
15342;SDS011;7771;48.478;8.936;2023-03-14T15:35:12;5.33;;;1.00;;
15342;SDS011;7771;48.478;8.936;2023-03-14T15:37:40;4.00;;;1.30;;
15342;SDS011;7771;48.478;8.936;2023-03-14T15:40:09;3.90;;;1.10;;
15342;SDS011;7771;48.478;8.936;2023-03-14T15:42:34;3.03;;;1.30;;
15342;SDS011;7771;48.478;8.936;2023-03-14T15:45:01;1.47;;;0.90;;
15342;SDS011;7771;48.478;8.936;2023-03-14T15:47:28;3.17;;;0.90;;
15342;SDS011;7771;48.478;8.936;2023-03-14T15:49:54;2.80;;;1.17;;